• Join FlightAware (Why Join?)
  • Login
  • US Flag 
11:30AM EDT


 

Airport Tracker/Info


-or-


 

Live Flight TrackerFlight Track Log ✈ UAL614 ✈ 18-Jun-2013 ✈ KORD - KDCA

Flight Track Log - Related Links

Times and Time Zones

All times are in EDT time to prevent confusion due to time zone crossing. See the UAL614 flight status page for this flight to view local times or setup timezone preferences in your user account.

Time Position Orientation Groundspeed Altitude Reporting Facility
EDT Latitude Longitude Course Direction KTS MPH feet Rate Location/Type
02:15PM 42.0000 -87.8500 90° East 165 190 2,700  Level Chicago TRACON
02:16PM 41.9953 -87.7919 96° East 195 224 4,000 2,520 Climbing Chicago Center
02:17PM 41.9867 -87.6869 96° East 259 298 7,400 3,120 Climbing Chicago Center
02:18PM 41.9422 -87.2640 96° East  Level FlightAware Approximate
02:18PM 41.9800 -87.5761 95° East 293 337 10,500  Level Chicago Center
02:19PM 41.9333 -87.1052 90° East  Level FlightAware Approximate
02:19PM 41.9708 -87.4575 96° East 315 362 13,300  Level Chicago Center
02:20PM 41.9333 -86.9458 90° East  Level FlightAware Approximate
02:20PM 41.9600 -87.2850 95° East 383 441 15,500  Level Chicago Center
02:21PM 41.9503 -87.1356 95° East 401 461 17,800 2,160 Climbing Chicago Center
02:22PM 41.9436 -86.9789 93° East 415 478 20,000 1,920 Climbing Chicago Center
02:23PM 41.9481 -86.8158 88° East 435 501 21,800 1,800 Climbing Chicago Center
02:24PM 41.9511 -86.6372 89° East 450 518 23,800 1,740 Climbing Chicago Center
02:25PM 41.9519 -86.4628 90° East 464 534 25,500 1,560 Climbing Chicago Center
02:26PM 41.9544 -86.2850 89° East 473 544 27,100 1,320 Climbing Chicago Center
02:27PM 41.9325 -86.1047 99° East 485 558 28,300 1,080 Climbing Chicago Center
02:28PM 41.8917 -85.8944 105° East 487 560 29,400 1,200 Climbing Chicago Center
02:29PM 41.8575 -85.7175 104° East 488 562 30,800 1,200 Climbing Chicago Center
02:30PM 41.8219 -85.5342 105° East 499 574 32,000 1,380 Climbing Chicago Center
02:31PM 41.7844 -85.3469 105° East 506 582 33,700 1,500 Climbing Chicago Center
02:32PM 41.7461 -85.1614 105° East 507 583 35,100 1,140 Climbing Chicago Center
02:34PM 41.7078 -84.9786 106° East 509 586 36,100 900 Climbing Chicago Center
02:35PM 41.6719 -84.7944 105° East 510 587 37,000 420 Climbing Chicago Center
02:35PM 41.6494 -84.6103 99° East 503 579 37,000  Level Cleveland Center
02:36PM 41.6056 -84.4297 108° East 503 579 37,000  Level Cleveland Center
02:37PM 41.5556 -84.2381 109° East 503 579 37,000  Level Cleveland Center
02:38PM 41.5111 -84.0606 108° East 503 579 37,000  Level Cleveland Center
02:39PM 41.4683 -83.8836 108° East 503 579 37,000  Level Cleveland Center
02:40PM 41.4231 -83.7097 109° East 503 579 37,000  Level Cleveland Center
02:41PM 41.3778 -83.5331 109° East 503 579 37,000  Level Cleveland Center
02:42PM 41.3322 -83.3569 109° East 503 579 37,000  Level Cleveland Center
02:43PM 41.2883 -83.1836 109° East 503 579 37,000  Level Cleveland Center
02:44PM 41.2442 -83.0106 109° East 497 572 37,000  Level Cleveland Center
02:45PM 41.1978 -82.8350 109° East 492 566 37,000  Level Cleveland Center
02:46PM 41.1531 -82.6625 109° East 492 566 37,000  Level Cleveland Center
02:47PM 41.1061 -82.4847 109° East 497 572 37,000  Level Cleveland Center
02:48PM 41.0631 -82.3153 109° East 497 572 37,000  Level Cleveland Center
02:49PM 41.0133 -82.1433 111° Southeast 497 572 37,000  Level Cleveland Center
02:50PM 40.9675 -81.9692 109° East 497 572 37,000  Level Cleveland Center
02:51PM 40.9194 -81.8006 111° Southeast 491 565 37,000  Level Cleveland Center
02:52PM 40.8458 -81.6564 124° Southeast 479 551 37,000  Level Cleveland Center
02:53PM 40.7592 -81.5533 138° Southeast 467 537 37,000  Level Cleveland Center
02:54PM 40.6497 -81.4453 143° Southeast 457 526 37,000  Level Cleveland Center
02:55PM 40.5628 -81.3511 141° Southeast 457 526 37,000  Level Cleveland Center
02:56PM 40.4508 -81.2406 143° Southeast 457 526 37,000  Level Cleveland Center
02:57PM 40.3492 -81.1417 143° Southeast 457 526 37,000  Level Cleveland Center
02:58PM 40.2475 -81.0508 146° Southeast 457 526 37,000  Level Cleveland Center
02:59PM 40.1519 -80.9497 141° Southeast 445 512 37,000  Level Cleveland Center
03:00PM 40.0586 -80.8544 142° Southeast 440 506 37,000 -360 Level Cleveland Center
03:01PM 39.9711 -80.7483 137° Southeast 435 501 36,300 -900 Descending Cleveland Center
03:02PM 39.8836 -80.6292 134° Southeast 440 506 35,300 -1,020 Descending Cleveland Center
03:03PM 39.8003 -80.5128 133° Southeast 440 506 34,300 -660 Descending Cleveland Center
03:04PM 39.7169 -80.3969 133° Southeast 440 506 34,000 -360 Descending Cleveland Center
03:05PM 39.6311 -80.2811 134° Southeast 440 506 33,600 -720 Descending Cleveland Center
03:06PM 39.5475 -80.1658 133° Southeast 440 506 32,600 -1,020 Descending Cleveland Center
03:07PM 39.4961 -80.0964 134° Southeast 441 507 32,000 -960 Descending Washington Center
03:08PM 39.4108 -79.9808 134° Southeast 441 507 31,100 -540 Descending Washington Center
03:09PM 39.3319 -79.8553 129° Southeast 446 513 31,000 -600 Descending Washington Center
03:10PM 39.2875 -79.6944 110° East 451 519 30,000 -1,200 Descending Washington Center
03:11PM 39.2742 -79.5275 96° East 456 525 28,600 -1,440 Descending Washington Center
03:12PM 39.2589 -79.3578 97° East 463 533 27,100 -1,380 Descending Washington Center
03:13PM 39.2447 -79.2122 97° East 463 533 25,900 -1,320 Descending Washington Center
03:14PM 39.2328 -79.0511 95° East 463 533 24,600 -1,440 Descending Washington Center
03:15PM 39.2183 -78.8950 97° East 452 520 23,100 -1,620 Descending Washington Center
03:16PM 39.2036 -78.7442 97° East 433 498 21,400 -1,680 Descending Washington Center
03:17PM 39.1886 -78.5989 98° East 421 484 19,800 -1,680 Descending Washington Center
03:18PM 39.1733 -78.4536 98° East 410 472 18,100 -1,620 Descending Washington Center
03:19PM 39.1536 -78.3164 100° East 399 459 16,600 -1,440 Descending Washington Center
03:20PM 39.1208 -78.1894 108° East 384 442 15,300 -1,320 Descending Washington Center
03:21PM 39.0881 -78.0706 110° East 366 421 14,100 -1,200 Descending Washington Center
03:22PM 39.0592 -77.9519 107° East 356 410 12,900 -1,260 Descending Washington Center
03:23PM 39.0322 -77.8389 107° East 343 395 11,700 -1,260 Descending Washington Center
03:24PM 38.9969 -77.7097 109° East 343 395 10,500 -1,320 Descending Washington Center
03:25PM 38.9667 -77.6167 113° Southeast 302 348 9,400 -1,140 Descending Potomac TRACON
03:26PM 38.9500 -77.5167 102° East 300 345 8,500 -1,020 Descending Potomac TRACON
03:27PM 38.9167 -77.4167 113° Southeast 297 342 7,400 -1,140 Descending Potomac TRACON
03:28PM 38.8667 -77.3333 128° Southeast 295 339 6,300 -720 Descending Potomac TRACON
03:29PM 38.8333 -77.2500 117° Southeast 261 300 6,000 -180 Descending Potomac TRACON
03:30PM 38.8000 -77.1833 123° Southeast 240 276 6,000 -120 Level Potomac TRACON
03:31PM 38.7667 -77.1167 123° Southeast 241 277 5,800 -840 Descending Potomac TRACON
03:32PM 38.7000 -77.1000 169° South 240 276 4,500 -900 Descending Potomac TRACON
03:33PM 38.6333 -77.0833 169° South 224 258 4,000 -600 Descending Potomac TRACON
03:34PM 38.6333 -77.0167 90° East 190 219 3,300 -780 Descending Potomac TRACON
03:35PM 38.6667 -77.0167 360° North 156 180 2,500 -840 Descending Potomac TRACON